createdAt,value
2022-08-12T00:02:02.725Z,2.28
2022-08-12T00:04:35.689Z,2.10
2022-08-12T00:07:23.070Z,2.40
2022-08-12T00:10:10.520Z,2.40
2022-08-12T00:12:58.160Z,2.70
2022-08-12T00:15:47.317Z,2.90
2022-08-12T00:18:35.073Z,2.90
2022-08-12T00:21:22.783Z,3.22
2022-08-12T00:24:12.730Z,3.38
2022-08-12T00:27:02.596Z,3.13
2022-08-12T00:29:50.204Z,2.97
2022-08-12T00:32:38.206Z,3.00
2022-08-12T00:35:32.749Z,3.50
2022-08-12T00:38:25.250Z,2.90
2022-08-12T00:41:14.143Z,3.60
2022-08-12T00:43:44.339Z,3.60
2022-08-12T00:46:31.843Z,3.45
2022-08-12T00:49:01.935Z,3.40
2022-08-12T00:51:50.143Z,3.30
2022-08-12T00:54:20.324Z,3.30
2022-08-12T00:56:51.337Z,2.95
2022-08-12T00:59:19.454Z,3.00
2022-08-12T01:02:10.830Z,2.97
2022-08-12T01:04:57.435Z,3.10
2022-08-12T01:07:46.769Z,3.50
2022-08-12T01:10:34.156Z,2.90
2022-08-12T01:13:14.283Z,2.97
2022-08-12T01:15:50.042Z,3.00
2022-08-12T01:18:20.121Z,3.30
2022-08-12T01:21:08.518Z,3.90
2022-08-12T01:24:30.425Z,2.72
2022-08-12T01:26:52.173Z,3.08
2022-08-12T01:29:26.630Z,3.42
2022-08-12T01:31:59.076Z,3.33
2022-08-12T01:34:36.444Z,3.08
2022-08-12T01:37:07.392Z,3.00
2022-08-12T01:40:31.647Z,3.38
2022-08-12T01:42:40.483Z,3.00
2022-08-12T01:45:12.642Z,3.50
2022-08-12T01:48:05.351Z,3.15
2022-08-12T01:50:37.770Z,3.40
2022-08-12T01:53:10.787Z,2.60
2022-08-12T01:55:42.162Z,2.88
2022-08-12T01:58:15.442Z,3.10
2022-08-12T02:00:55.246Z,2.95
2022-08-12T02:03:23.259Z,3.10
2022-08-12T02:06:23.095Z,3.35
2022-08-12T02:09:18.413Z,3.08
2022-08-12T02:12:09.413Z,3.00
2022-08-12T02:14:37.917Z,3.33
2022-08-12T02:17:55.194Z,3.00
2022-08-12T02:20:51.139Z,3.00
2022-08-12T02:23:14.878Z,3.33
2022-08-12T02:25:45.930Z,3.35
2022-08-12T02:28:14.207Z,2.90
2022-08-12T02:30:42.988Z,3.05
2022-08-12T02:33:11.580Z,3.28
2022-08-12T02:35:39.826Z,3.10
2022-08-12T02:38:10.464Z,3.13
2022-08-12T02:40:40.751Z,3.50
2022-08-12T02:43:30.835Z,2.80
2022-08-12T02:46:09.306Z,3.63
2022-08-12T02:49:03.462Z,3.03
2022-08-12T02:51:35.696Z,3.00
2022-08-12T02:54:06.133Z,2.85
2022-08-12T02:56:38.196Z,3.00
2022-08-12T02:59:07.003Z,3.08
2022-08-12T03:01:47.688Z,2.83
2022-08-12T03:04:26.891Z,2.90
2022-08-12T03:07:15.025Z,2.95
2022-08-12T03:10:04.672Z,3.10
2022-08-12T03:12:42.817Z,2.80
2022-08-12T03:18:24.599Z,2.90
2022-08-12T03:20:46.211Z,2.92
2022-08-12T03:23:17.516Z,2.90
2022-08-12T03:26:00.997Z,2.75
2022-08-12T03:28:51.033Z,2.88
2022-08-12T03:31:20.822Z,3.00
2022-08-12T03:34:01.344Z,3.00
2022-08-12T03:36:35.023Z,2.75
2022-08-12T03:39:36.229Z,2.72
2022-08-12T03:42:34.482Z,2.90
2022-08-12T03:45:22.793Z,2.83
2022-08-12T03:48:25.374Z,3.13
2022-08-12T03:51:15.352Z,2.47
2022-08-12T03:54:03.295Z,3.00
2022-08-12T03:56:52.605Z,2.78
2022-08-12T03:59:39.725Z,2.92
2022-08-12T04:02:08.431Z,2.88
2022-08-12T04:04:36.127Z,2.50
2022-08-12T04:07:09.570Z,2.90
2022-08-12T04:09:40.481Z,2.78
2022-08-12T04:12:29.918Z,2.70
2022-08-12T04:15:01.893Z,2.83
2022-08-12T04:17:29.899Z,2.55
2022-08-12T04:19:59.231Z,2.80
2022-08-12T04:22:37.802Z,2.72
2022-08-12T04:25:05.849Z,2.70
2022-08-12T04:27:34.969Z,2.70
2022-08-12T04:30:30.946Z,2.55
2022-08-12T04:32:54.006Z,2.95
2022-08-12T04:35:21.731Z,3.10
2022-08-12T04:37:59.106Z,2.95
2022-08-12T04:40:30.435Z,2.83
2022-08-12T04:43:01.570Z,3.20
2022-08-12T04:45:33.281Z,3.35
2022-08-12T04:48:02.792Z,2.97
2022-08-12T04:50:35.733Z,2.72
2022-08-12T04:53:06.685Z,2.63
2022-08-12T04:55:38.473Z,3.15
2022-08-12T04:58:07.011Z,2.97
2022-08-12T05:00:34.835Z,2.97
2022-08-12T05:03:02.325Z,2.95
2022-08-12T05:05:35.256Z,3.22
2022-08-12T05:08:04.309Z,3.37
2022-08-12T05:10:33.101Z,3.20
2022-08-12T05:13:08.154Z,3.33
2022-08-12T05:16:04.319Z,3.40
2022-08-12T05:18:29.285Z,3.33
2022-08-12T05:20:59.095Z,2.65
2022-08-12T05:23:27.112Z,2.70
2022-08-12T05:25:57.338Z,3.10
2022-08-12T05:28:27.978Z,3.00
2022-08-12T05:30:57.374Z,3.08
2022-08-12T05:33:26.820Z,2.88
2022-08-12T05:35:54.106Z,2.75
2022-08-12T05:38:41.328Z,2.72
2022-08-12T05:41:19.277Z,2.38
2022-08-12T05:43:48.847Z,2.28
2022-08-12T05:46:19.795Z,2.35
2022-08-12T05:48:49.506Z,1.92
2022-08-12T05:51:17.569Z,2.03
2022-08-12T05:53:45.440Z,1.90
2022-08-12T05:56:25.706Z,1.80
2022-08-12T05:58:54.605Z,1.70
2022-08-12T06:02:08.853Z,1.50
2022-08-12T06:04:10.865Z,1.45
2022-08-12T06:06:41.825Z,1.40
2022-08-12T06:09:11.383Z,1.63
2022-08-12T06:11:53.623Z,1.25
2022-08-12T06:14:29.123Z,1.42
2022-08-12T06:16:57.921Z,1.50
2022-08-12T06:20:28.645Z,1.50
2022-08-12T06:22:14.618Z,1.48
2022-08-12T06:24:41.840Z,1.60
2022-08-12T06:27:09.868Z,1.60
2022-08-12T06:30:08.874Z,1.40
2022-08-12T06:32:27.489Z,1.25
2022-08-12T06:35:22.933Z,1.52
2022-08-12T06:37:56.249Z,1.40
2022-08-12T06:40:45.271Z,1.40
2022-08-12T06:43:14.467Z,1.50
2022-08-12T06:45:49.325Z,1.58
2022-08-12T06:48:17.461Z,1.70
2022-08-12T06:50:46.463Z,1.63
2022-08-12T06:53:13.799Z,1.40
2022-08-12T06:55:58.162Z,1.58
2022-08-12T06:58:27.682Z,1.60
2022-08-12T07:00:56.117Z,1.50
2022-08-12T07:03:28.819Z,1.65
2022-08-12T07:06:00.509Z,1.17
2022-08-12T07:08:30.903Z,1.60
2022-08-12T07:11:05.088Z,1.50
2022-08-12T07:14:11.781Z,1.58
2022-08-12T07:16:51.433Z,1.60
2022-08-12T07:19:22.071Z,1.40
2022-08-12T07:22:01.697Z,1.45
2022-08-12T07:24:30.575Z,1.45
2022-08-12T07:26:57.979Z,1.08
2022-08-12T07:30:00.051Z,1.33
2022-08-12T07:32:16.249Z,1.50
2022-08-12T07:34:43.541Z,1.63
2022-08-12T07:37:10.878Z,1.50
2022-08-12T07:39:50.592Z,1.77
2022-08-12T07:42:25.387Z,1.75
2022-08-12T07:44:54.066Z,1.40
2022-08-12T07:47:21.479Z,1.45
2022-08-12T07:50:03.235Z,1.50
2022-08-12T07:52:35.144Z,1.42
2022-08-12T07:55:03.760Z,1.42
2022-08-12T07:57:33.053Z,1.50
2022-08-12T08:00:06.203Z,1.50
2022-08-12T08:02:37.678Z,1.40
2022-08-12T08:05:05.866Z,1.20
2022-08-12T08:07:35.073Z,1.40
2022-08-12T08:10:06.877Z,1.58
2022-08-12T08:12:54.183Z,1.48
2022-08-12T08:15:44.468Z,1.30
2022-08-12T08:18:26.187Z,1.17
2022-08-12T08:20:56.866Z,1.20
2022-08-12T08:23:46.421Z,1.67
2022-08-12T08:26:15.796Z,1.73
2022-08-12T08:28:43.818Z,1.40
2022-08-12T08:31:13.569Z,1.23
2022-08-12T08:34:09.613Z,1.58
2022-08-12T08:36:29.988Z,1.50
2022-08-12T08:38:58.859Z,1.60
2022-08-12T08:42:15.681Z,1.17
2022-08-12T08:44:39.071Z,1.33
2022-08-12T08:47:07.822Z,1.35
2022-08-12T08:49:37.339Z,1.63
2022-08-12T08:52:06.586Z,1.40
2022-08-12T08:54:34.584Z,1.63
2022-08-12T08:57:03.904Z,1.55
2022-08-12T08:59:34.013Z,1.50
2022-08-12T09:02:02.731Z,1.40
2022-08-12T09:05:14.633Z,1.33
2022-08-12T09:07:43.872Z,1.20
2022-08-12T09:10:09.246Z,1.50
2022-08-12T09:13:23.280Z,1.20
2022-08-12T09:15:59.404Z,1.63
2022-08-12T09:18:33.177Z,1.30
2022-08-12T09:21:02.058Z,1.48
2022-08-12T09:23:59.925Z,1.40
2022-08-12T09:26:20.563Z,1.25
2022-08-12T09:28:53.283Z,1.60
2022-08-12T09:32:06.748Z,1.30
2022-08-12T09:34:29.044Z,1.33
2022-08-12T09:37:18.515Z,1.60
2022-08-12T09:40:02.413Z,1.40
2022-08-12T09:46:11.419Z,1.35
2022-08-12T09:48:36.068Z,1.65
2022-08-12T09:51:17.123Z,1.30
2022-08-12T09:54:10.615Z,1.73
2022-08-12T09:56:58.277Z,1.58
2022-08-12T10:00:17.030Z,1.30
2022-08-12T10:02:43.227Z,1.20
2022-08-12T10:05:05.810Z,1.75
2022-08-12T10:07:39.848Z,1.88
2022-08-12T10:10:24.578Z,1.30
2022-08-12T10:13:37.300Z,1.35
2022-08-12T10:16:06.393Z,1.30
2022-08-12T10:18:51.365Z,1.30
2022-08-12T10:21:35.747Z,1.50
2022-08-12T10:24:06.965Z,1.63
2022-08-12T10:26:56.663Z,1.63
2022-08-12T10:30:40.628Z,1.60
2022-08-12T10:32:43.830Z,1.23
2022-08-12T10:35:15.560Z,1.70
2022-08-12T10:38:33.494Z,1.50
2022-08-12T10:40:34.017Z,1.27
2022-08-12T10:43:24.651Z,1.40
2022-08-12T10:45:58.469Z,1.23
2022-08-12T10:48:33.918Z,1.65
2022-08-12T10:52:05.424Z,1.60
2022-08-12T10:54:00.073Z,1.40
2022-08-12T10:56:27.620Z,1.42
2022-08-12T10:59:05.513Z,1.63
2022-08-12T11:04:18.657Z,1.73
2022-08-12T11:04:41.465Z,1.70
2022-08-12T11:08:36.920Z,1.48
2022-08-12T11:10:02.541Z,1.45
2022-08-12T11:12:55.450Z,1.58
2022-08-12T11:15:33.264Z,1.92
2022-08-12T11:18:18.460Z,1.40
2022-08-12T11:20:48.690Z,1.55
2022-08-12T11:23:26.031Z,1.40
2022-08-12T11:26:07.404Z,1.80
2022-08-12T11:28:37.803Z,1.50
2022-08-12T11:31:11.990Z,1.40
2022-08-12T11:34:04.406Z,1.45
2022-08-12T11:36:30.850Z,1.10
2022-08-12T11:39:04.390Z,1.45
2022-08-12T11:41:33.597Z,1.35
2022-08-12T11:44:37.118Z,1.33
2022-08-12T11:46:52.778Z,1.63
2022-08-12T11:49:32.388Z,1.40
2022-08-12T11:52:01.410Z,1.30
2022-08-12T11:54:29.497Z,1.30
2022-08-12T11:56:59.628Z,1.10
2022-08-12T12:02:20.055Z,1.42
2022-08-12T12:04:52.073Z,1.42
2022-08-12T12:07:34.018Z,1.20
2022-08-12T12:10:12.551Z,1.40
2022-08-12T12:12:41.378Z,1.33
2022-08-12T12:15:13.508Z,1.50
2022-08-12T12:17:42.764Z,1.50
2022-08-12T12:20:12.795Z,1.52
2022-08-12T12:22:43.558Z,1.70
2022-08-12T12:25:13.926Z,1.30
2022-08-12T12:28:04.496Z,1.30
2022-08-12T12:30:33.714Z,1.45
2022-08-12T12:33:01.649Z,1.40
2022-08-12T12:36:05.964Z,1.70
2022-08-12T12:38:17.541Z,1.65
2022-08-12T12:40:50.219Z,1.30
2022-08-12T12:43:28.700Z,1.60
2022-08-12T12:46:06.163Z,1.63
2022-08-12T12:48:36.650Z,1.50
2022-08-12T12:51:49.092Z,1.40
2022-08-12T12:54:10.899Z,1.75
2022-08-12T12:56:42.854Z,1.77
2022-08-12T12:59:55.057Z,1.60
2022-08-12T13:02:07.599Z,1.58
2022-08-12T13:04:37.378Z,1.50
2022-08-12T13:07:06.593Z,1.52
2022-08-12T13:09:36.153Z,1.60
2022-08-12T13:12:08.184Z,1.30
2022-08-12T13:14:40.004Z,1.30
2022-08-12T13:17:13.624Z,1.58
2022-08-12T13:19:48.349Z,1.52
2022-08-12T13:22:21.324Z,1.60
2022-08-12T13:24:56.910Z,2.05
2022-08-12T13:27:34.370Z,1.50
2022-08-12T13:30:06.860Z,1.80
2022-08-12T13:32:38.601Z,1.80
2022-08-12T13:35:19.409Z,1.63
2022-08-12T13:37:54.692Z,1.45
2022-08-12T13:40:25.362Z,1.70
2022-08-12T13:42:58.109Z,1.30
2022-08-12T13:45:29.040Z,1.63
2022-08-12T13:48:00.121Z,1.60
2022-08-12T13:50:38.557Z,1.80
2022-08-12T13:53:23.960Z,1.27
2022-08-12T13:55:59.748Z,1.60
2022-08-12T13:58:30.430Z,1.50
2022-08-12T14:00:59.954Z,1.73
2022-08-12T14:03:28.241Z,1.40
2022-08-12T14:05:59.648Z,1.48
2022-08-12T14:08:34.627Z,1.30
2022-08-12T14:11:02.614Z,1.40
2022-08-12T14:14:04.123Z,1.50
2022-08-12T14:16:37.855Z,1.50
2022-08-12T14:19:22.250Z,1.60
2022-08-12T14:22:00.581Z,1.77
2022-08-12T14:24:40.650Z,1.38
2022-08-12T14:27:10.886Z,1.30
2022-08-12T14:30:05.767Z,1.80
2022-08-12T14:32:35.258Z,1.35
2022-08-12T14:35:09.251Z,1.38
2022-08-12T14:37:55.372Z,1.40
2022-08-12T14:40:27.586Z,1.30
2022-08-12T14:42:57.050Z,1.38
2022-08-12T14:45:45.482Z,1.55
2022-08-12T14:48:15.254Z,1.45
2022-08-12T14:52:16.141Z,1.40
2022-08-12T14:59:56.635Z,1.48
2022-08-12T15:02:21.356Z,1.63
2022-08-12T15:04:56.446Z,1.45
2022-08-12T15:07:33.427Z,1.67
2022-08-12T15:10:13.842Z,1.55
2022-08-12T15:12:41.463Z,1.50
2022-08-12T15:15:10.510Z,1.73
2022-08-12T15:17:39.767Z,1.55
2022-08-12T15:20:32.978Z,1.30
2022-08-12T15:22:58.028Z,1.60
2022-08-12T15:25:27.146Z,1.50
2022-08-12T15:28:05.473Z,1.23
2022-08-12T15:30:37.279Z,1.30
2022-08-12T15:33:14.919Z,1.50
2022-08-12T15:35:53.102Z,1.98
2022-08-12T15:38:25.823Z,1.50
2022-08-12T15:40:54.312Z,1.60
2022-08-12T15:43:51.744Z,1.60
2022-08-12T15:46:15.291Z,1.70
2022-08-12T15:48:47.114Z,1.48
2022-08-12T15:51:59.198Z,1.42
2022-08-12T15:54:33.145Z,1.48
2022-08-12T15:57:08.310Z,1.70
2022-08-12T16:00:00.820Z,1.60
2022-08-12T16:02:29.397Z,1.88
2022-08-12T16:04:58.224Z,1.50
2022-08-12T16:07:32.698Z,1.70
2022-08-12T16:10:08.649Z,1.50
2022-08-12T16:12:43.371Z,1.50
2022-08-12T16:15:14.832Z,1.67
2022-08-12T16:18:19.252Z,1.33
2022-08-12T16:20:34.506Z,1.40
2022-08-12T16:23:26.151Z,1.35
2022-08-12T16:26:06.392Z,1.70
2022-08-12T16:28:42.620Z,1.58
2022-08-12T16:31:18.589Z,1.30
2022-08-12T16:33:59.233Z,1.70
2022-08-12T16:36:31.276Z,1.50
2022-08-12T16:39:01.811Z,1.70
2022-08-12T16:41:37.813Z,1.60
2022-08-12T16:44:08.233Z,1.95
2022-08-12T16:46:37.793Z,1.80
2022-08-12T16:49:13.494Z,1.92
2022-08-12T16:51:46.751Z,1.60
2022-08-12T16:54:17.051Z,1.70
2022-08-12T16:56:54.960Z,1.75
2022-08-12T16:59:30.960Z,1.60
2022-08-12T17:02:31.546Z,1.63
2022-08-12T17:05:05.439Z,1.60
2022-08-12T17:07:43.035Z,1.50
2022-08-12T17:10:18.140Z,1.88
2022-08-12T17:12:45.928Z,1.77
2022-08-12T17:15:41.360Z,1.48
2022-08-12T17:18:38.973Z,1.50
2022-08-12T17:20:51.589Z,1.50
2022-08-12T17:23:21.501Z,1.70
2022-08-12T17:25:53.029Z,1.65
2022-08-12T17:28:22.818Z,1.48
2022-08-12T17:30:57.388Z,1.60
2022-08-12T17:33:34.188Z,1.50
2022-08-12T17:36:06.319Z,1.55
2022-08-12T17:38:35.132Z,1.25
2022-08-12T17:41:22.217Z,1.15
2022-08-12T17:43:58.140Z,1.30
2022-08-12T17:46:33.414Z,1.40
2022-08-12T17:49:06.689Z,1.38
2022-08-12T17:52:02.229Z,1.40
2022-08-12T17:54:33.398Z,1.48
2022-08-12T17:57:03.477Z,1.50
2022-08-12T17:59:48.730Z,1.50
2022-08-12T18:02:25.423Z,1.23
2022-08-12T18:05:09.665Z,1.55
2022-08-12T18:07:39.556Z,1.60
2022-08-12T18:10:08.354Z,1.95
2022-08-12T18:12:38.671Z,1.70
2022-08-12T18:15:26.204Z,1.73
2022-08-12T18:20:36.442Z,1.70
2022-08-12T18:23:06.356Z,1.80
2022-08-12T18:26:14.057Z,2.08
2022-08-12T18:28:48.199Z,1.83
2022-08-12T18:31:18.287Z,2.50
2022-08-12T18:33:46.946Z,2.10
2022-08-12T18:36:22.521Z,1.50
2022-08-12T18:38:56.203Z,1.38
2022-08-12T18:41:32.116Z,1.52
2022-08-12T18:44:09.250Z,1.70
2022-08-12T18:46:48.897Z,1.50
2022-08-12T18:52:08.648Z,1.65
2022-08-12T18:54:49.334Z,1.75
2022-08-12T18:57:45.809Z,1.58
2022-08-12T19:00:21.534Z,3.05
2022-08-12T19:02:52.007Z,1.77
2022-08-12T19:05:21.520Z,1.80
2022-08-12T19:08:01.735Z,1.90
2022-08-12T19:10:31.683Z,1.60
2022-08-12T19:13:23.748Z,1.63
2022-08-12T19:15:54.826Z,1.90
2022-08-12T19:18:29.566Z,1.42
2022-08-12T19:20:59.059Z,1.92
2022-08-12T19:23:35.039Z,1.45
2022-08-12T19:26:12.243Z,1.60
2022-08-12T19:28:41.462Z,1.67
2022-08-12T19:31:44.519Z,1.60
2022-08-12T19:37:27.519Z,1.98
2022-08-12T19:40:31.330Z,2.10
2022-08-12T19:43:00.927Z,3.65
2022-08-12T19:45:43.282Z,8.07
2022-08-12T19:48:19.190Z,11.23
2022-08-12T19:50:52.749Z,14.68
2022-08-12T19:53:23.932Z,11.07
2022-08-12T19:55:54.073Z,6.78
2022-08-12T19:58:23.127Z,4.80
2022-08-12T20:00:55.725Z,3.33
2022-08-12T20:03:38.033Z,3.38
2022-08-12T20:06:13.374Z,2.80
2022-08-12T20:08:48.794Z,2.70
2022-08-12T20:12:09.159Z,3.03
2022-08-12T20:14:06.601Z,2.30
2022-08-12T20:16:57.471Z,2.38
2022-08-12T20:19:52.501Z,2.28
2022-08-12T20:22:23.573Z,2.45
2022-08-12T20:24:55.192Z,2.15
2022-08-12T20:27:29.843Z,2.50
2022-08-12T20:30:14.896Z,2.08
2022-08-12T20:33:02.288Z,2.10
2022-08-12T20:35:38.947Z,2.33
2022-08-12T20:38:26.327Z,2.50
2022-08-12T20:40:55.850Z,1.92
2022-08-12T20:43:28.449Z,2.00
2022-08-12T20:45:59.391Z,1.90
2022-08-12T20:48:29.483Z,2.28
2022-08-12T20:51:04.363Z,2.30
2022-08-12T20:53:57.533Z,2.20
2022-08-12T20:56:30.848Z,2.17
2022-08-12T20:59:01.371Z,2.45
2022-08-12T21:01:47.224Z,2.00
2022-08-12T21:04:37.348Z,2.50
2022-08-12T21:07:09.802Z,2.35
2022-08-12T21:09:44.693Z,2.20
2022-08-12T21:12:27.632Z,2.35
2022-08-12T21:15:17.076Z,2.47
2022-08-12T21:18:08.109Z,2.17
2022-08-12T21:20:37.103Z,2.13
2022-08-12T21:23:06.694Z,2.20
2022-08-12T21:25:44.093Z,1.98
2022-08-12T21:28:13.278Z,2.17
2022-08-12T21:32:37.871Z,2.38
2022-08-12T21:33:45.559Z,2.53
2022-08-12T21:36:22.642Z,1.85
2022-08-12T21:39:20.309Z,2.10
2022-08-12T21:41:52.094Z,2.10
2022-08-12T21:44:32.528Z,2.20
2022-08-12T21:47:20.852Z,2.22
2022-08-12T21:50:03.741Z,2.10
2022-08-12T21:52:37.349Z,1.95
2022-08-12T21:55:18.936Z,2.15
2022-08-12T21:57:53.347Z,2.55
2022-08-12T22:00:32.439Z,2.17
2022-08-12T22:04:02.230Z,2.13
2022-08-12T22:06:30.764Z,2.40
2022-08-12T22:09:15.730Z,2.28
2022-08-12T22:11:56.327Z,2.28
2022-08-12T22:14:28.592Z,2.05
2022-08-12T22:16:58.046Z,2.20
2022-08-12T22:19:26.783Z,2.20
2022-08-12T22:21:56.305Z,2.10
2022-08-12T22:24:30.112Z,2.10
2022-08-12T22:27:17.843Z,2.00
2022-08-12T22:30:07.183Z,2.10
2022-08-12T22:32:38.787Z,2.30
2022-08-12T22:35:29.189Z,1.85
2022-08-12T22:38:07.678Z,2.28
2022-08-12T22:40:39.907Z,2.33
2022-08-12T22:43:31.346Z,2.10
2022-08-12T22:46:19.379Z,2.22
2022-08-12T22:48:50.475Z,1.75
2022-08-12T22:51:24.106Z,2.00
2022-08-12T22:53:54.406Z,2.35
2022-08-12T22:56:30.693Z,2.00
2022-08-12T22:59:02.602Z,2.03
2022-08-12T23:02:01.147Z,2.17
2022-08-12T23:04:28.076Z,2.28
2022-08-12T23:06:58.538Z,2.20
2022-08-12T23:09:48.038Z,2.45
2022-08-12T23:12:37.497Z,2.05
2022-08-12T23:15:13.876Z,2.08
2022-08-12T23:17:42.708Z,2.30
2022-08-12T23:20:11.528Z,2.30
2022-08-12T23:22:40.207Z,2.08
2022-08-12T23:25:21.109Z,2.10
2022-08-12T23:28:29.267Z,2.25
2022-08-12T23:31:04.227Z,2.25
2022-08-12T23:34:00.635Z,2.17
2022-08-12T23:36:31.710Z,2.17
2022-08-12T23:40:14.791Z,2.30
2022-08-12T23:42:17.755Z,2.40
2022-08-12T23:44:45.848Z,2.05
2022-08-12T23:47:14.295Z,2.22
2022-08-12T23:49:57.542Z,2.28
2022-08-12T23:52:34.037Z,2.70
2022-08-12T23:55:23.641Z,2.58
2022-08-12T23:58:22.810Z,2.58
